sensor_id;sensor_type;location;lat;lon;timestamp;temperature;humidity
17452;DHT22;8843;48.838;9.324;2022-08-03T00:01:47;24.80;60.00
17452;DHT22;8843;48.838;9.324;2022-08-03T00:04:14;24.80;59.90
17452;DHT22;8843;48.838;9.324;2022-08-03T00:06:41;24.80;60.80
17452;DHT22;8843;48.838;9.324;2022-08-03T00:09:08;24.80;60.00
17452;DHT22;8843;48.838;9.324;2022-08-03T00:11:35;24.80;60.00
17452;DHT22;8843;48.838;9.324;2022-08-03T00:14:02;24.80;60.00
17452;DHT22;8843;48.838;9.324;2022-08-03T00:16:30;24.80;60.10
17452;DHT22;8843;48.838;9.324;2022-08-03T00:18:58;24.80;60.00
17452;DHT22;8843;48.838;9.324;2022-08-03T00:21:25;24.80;60.00
17452;DHT22;8843;48.838;9.324;2022-08-03T00:23:52;24.80;60.10
17452;DHT22;8843;48.838;9.324;2022-08-03T00:26:19;24.70;60.00
17452;DHT22;8843;48.838;9.324;2022-08-03T00:28:46;24.70;60.00
17452;DHT22;8843;48.838;9.324;2022-08-03T00:31:13;24.70;60.00
17452;DHT22;8843;48.838;9.324;2022-08-03T00:33:40;24.70;60.00
17452;DHT22;8843;48.838;9.324;2022-08-03T00:36:08;24.70;59.90
17452;DHT22;8843;48.838;9.324;2022-08-03T00:38:35;24.70;60.00
17452;DHT22;8843;48.838;9.324;2022-08-03T00:41:02;24.70;60.00
17452;DHT22;8843;48.838;9.324;2022-08-03T00:43:29;24.70;60.00
17452;DHT22;8843;48.838;9.324;2022-08-03T00:45:56;24.70;60.00
17452;DHT22;8843;48.838;9.324;2022-08-03T00:48:22;24.70;60.00
17452;DHT22;8843;48.838;9.324;2022-08-03T00:50:50;24.70;60.00
17452;DHT22;8843;48.838;9.324;2022-08-03T00:53:18;24.70;59.90
17452;DHT22;8843;48.838;9.324;2022-08-03T00:55:45;24.70;60.00
17452;DHT22;8843;48.838;9.324;2022-08-03T00:58:12;24.70;60.00
17452;DHT22;8843;48.838;9.324;2022-08-03T01:00:39;24.70;60.80
17452;DHT22;8843;48.838;9.324;2022-08-03T01:03:08;24.70;60.10
17452;DHT22;8843;48.838;9.324;2022-08-03T01:05:43;24.70;60.10
17452;DHT22;8843;48.838;9.324;2022-08-03T01:08:19;24.70;60.10
17452;DHT22;8843;48.838;9.324;2022-08-03T01:10:53;24.70;60.10
17452;DHT22;8843;48.838;9.324;2022-08-03T01:13:27;24.70;60.10
17452;DHT22;8843;48.838;9.324;2022-08-03T01:15:59;24.60;60.00
17452;DHT22;8843;48.838;9.324;2022-08-03T01:18:35;24.70;60.10
17452;DHT22;8843;48.838;9.324;2022-08-03T01:21:09;24.60;60.00
17452;DHT22;8843;48.838;9.324;2022-08-03T01:23:51;24.60;60.10
17452;DHT22;8843;48.838;9.324;2022-08-03T01:26:41;24.60;60.80
17452;DHT22;8843;48.838;9.324;2022-08-03T01:32:15;24.60;60.90
17452;DHT22;8843;48.838;9.324;2022-08-03T01:34:47;24.60;60.10
17452;DHT22;8843;48.838;9.324;2022-08-03T01:37:23;24.60;60.20
17452;DHT22;8843;48.838;9.324;2022-08-03T01:39:54;24.60;60.10
17452;DHT22;8843;48.838;9.324;2022-08-03T01:42:24;24.60;60.20
17452;DHT22;8843;48.838;9.324;2022-08-03T01:44:52;24.60;60.20
17452;DHT22;8843;48.838;9.324;2022-08-03T01:47:23;24.60;60.10
17452;DHT22;8843;48.838;9.324;2022-08-03T01:49:51;24.60;60.20
17452;DHT22;8843;48.838;9.324;2022-08-03T01:52:19;24.60;60.30
17452;DHT22;8843;48.838;9.324;2022-08-03T01:54:49;24.60;60.40
17452;DHT22;8843;48.838;9.324;2022-08-03T01:57:18;24.60;60.30
17452;DHT22;8843;48.838;9.324;2022-08-03T01:59:47;24.60;60.40
17452;DHT22;8843;48.838;9.324;2022-08-03T02:02:16;24.60;60.50
17452;DHT22;8843;48.838;9.324;2022-08-03T02:04:46;24.60;60.40
17452;DHT22;8843;48.838;9.324;2022-08-03T02:07:15;24.50;60.30
17452;DHT22;8843;48.838;9.324;2022-08-03T02:09:44;24.50;60.30
17452;DHT22;8843;48.838;9.324;2022-08-03T02:12:13;24.50;60.40
17452;DHT22;8843;48.838;9.324;2022-08-03T02:14:42;24.50;60.50
17452;DHT22;8843;48.838;9.324;2022-08-03T02:17:10;24.50;60.40
17452;DHT22;8843;48.838;9.324;2022-08-03T02:19:38;24.50;60.40
17452;DHT22;8843;48.838;9.324;2022-08-03T02:22:10;24.50;60.50
17452;DHT22;8843;48.838;9.324;2022-08-03T02:24:37;24.50;60.50
17452;DHT22;8843;48.838;9.324;2022-08-03T02:27:09;24.50;60.60
17452;DHT22;8843;48.838;9.324;2022-08-03T02:29:38;24.50;60.50
17452;DHT22;8843;48.838;9.324;2022-08-03T02:32:09;24.50;60.60
17452;DHT22;8843;48.838;9.324;2022-08-03T02:34:39;24.50;61.30
17452;DHT22;8843;48.838;9.324;2022-08-03T02:37:09;24.40;60.50
17452;DHT22;8843;48.838;9.324;2022-08-03T02:39:39;24.40;60.50
17452;DHT22;8843;48.838;9.324;2022-08-03T02:42:08;24.50;60.70
17452;DHT22;8843;48.838;9.324;2022-08-03T02:44:36;24.40;60.70
17452;DHT22;8843;48.838;9.324;2022-08-03T02:47:08;24.40;60.70
17452;DHT22;8843;48.838;9.324;2022-08-03T02:49:37;24.40;60.70
17452;DHT22;8843;48.838;9.324;2022-08-03T02:52:10;24.40;60.70
17452;DHT22;8843;48.838;9.324;2022-08-03T02:54:39;24.40;60.80
17452;DHT22;8843;48.838;9.324;2022-08-03T02:57:06;24.40;60.80
17452;DHT22;8843;48.838;9.324;2022-08-03T02:59:35;24.40;60.70
17452;DHT22;8843;48.838;9.324;2022-08-03T03:02:03;24.40;60.80
17452;DHT22;8843;48.838;9.324;2022-08-03T03:04:30;24.40;60.80
17452;DHT22;8843;48.838;9.324;2022-08-03T03:06:59;24.40;60.80
17452;DHT22;8843;48.838;9.324;2022-08-03T03:09:28;24.40;61.00
17452;DHT22;8843;48.838;9.324;2022-08-03T03:11:55;24.40;60.90
17452;DHT22;8843;48.838;9.324;2022-08-03T03:14:23;24.40;60.90
17452;DHT22;8843;48.838;9.324;2022-08-03T03:16:51;24.30;60.80
17452;DHT22;8843;48.838;9.324;2022-08-03T03:19:19;24.30;60.80
17452;DHT22;8843;48.838;9.324;2022-08-03T03:21:46;24.30;60.90
17452;DHT22;8843;48.838;9.324;2022-08-03T03:24:15;24.30;60.90
17452;DHT22;8843;48.838;9.324;2022-08-03T03:26:43;24.30;61.10
17452;DHT22;8843;48.838;9.324;2022-08-03T03:29:11;24.30;61.10
17452;DHT22;8843;48.838;9.324;2022-08-03T03:31:38;24.30;61.00
17452;DHT22;8843;48.838;9.324;2022-08-03T03:34:05;24.30;61.10
17452;DHT22;8843;48.838;9.324;2022-08-03T03:36:32;24.30;61.10
17452;DHT22;8843;48.838;9.324;2022-08-03T03:38:59;24.30;61.80
17452;DHT22;8843;48.838;9.324;2022-08-03T03:41:26;24.30;61.10
17452;DHT22;8843;48.838;9.324;2022-08-03T03:43:55;24.30;61.10
17452;DHT22;8843;48.838;9.324;2022-08-03T03:46:22;24.30;61.10
17452;DHT22;8843;48.838;9.324;2022-08-03T03:48:49;24.30;61.10
17452;DHT22;8843;48.838;9.324;2022-08-03T03:51:16;24.30;61.20
17452;DHT22;8843;48.838;9.324;2022-08-03T03:53:57;24.30;62.00
17452;DHT22;8843;48.838;9.324;2022-08-03T03:56:24;24.30;61.10
17452;DHT22;8843;48.838;9.324;2022-08-03T03:58:51;24.30;61.30
17452;DHT22;8843;48.838;9.324;2022-08-03T04:01:20;24.30;61.20
17452;DHT22;8843;48.838;9.324;2022-08-03T04:03:47;24.20;61.10
17452;DHT22;8843;48.838;9.324;2022-08-03T04:06:14;24.20;61.20
17452;DHT22;8843;48.838;9.324;2022-08-03T04:08:59;24.20;61.20
17452;DHT22;8843;48.838;9.324;2022-08-03T04:11:44;24.20;62.10
17452;DHT22;8843;48.838;9.324;2022-08-03T04:14:16;24.20;61.30
17452;DHT22;8843;48.838;9.324;2022-08-03T04:16:49;24.20;61.30
17452;DHT22;8843;48.838;9.324;2022-08-03T04:19:23;24.20;62.10
17452;DHT22;8843;48.838;9.324;2022-08-03T04:21:53;24.20;61.30
17452;DHT22;8843;48.838;9.324;2022-08-03T04:24:21;24.20;61.30
17452;DHT22;8843;48.838;9.324;2022-08-03T04:26:50;24.20;61.30
17452;DHT22;8843;48.838;9.324;2022-08-03T04:29:18;24.20;61.40
17452;DHT22;8843;48.838;9.324;2022-08-03T04:31:48;24.20;61.40
17452;DHT22;8843;48.838;9.324;2022-08-03T04:34:16;24.20;61.40
17452;DHT22;8843;48.838;9.324;2022-08-03T04:36:47;24.10;61.30
17452;DHT22;8843;48.838;9.324;2022-08-03T04:39:18;24.20;61.50
17452;DHT22;8843;48.838;9.324;2022-08-03T04:41:49;24.10;61.40
17452;DHT22;8843;48.838;9.324;2022-08-03T04:44:19;24.10;62.30
17452;DHT22;8843;48.838;9.324;2022-08-03T04:46:48;24.10;61.40
17452;DHT22;8843;48.838;9.324;2022-08-03T04:49:15;24.10;61.40
17452;DHT22;8843;48.838;9.324;2022-08-03T04:51:43;24.10;61.40
17452;DHT22;8843;48.838;9.324;2022-08-03T04:54:11;24.10;61.40
17452;DHT22;8843;48.838;9.324;2022-08-03T04:56:39;24.10;61.50
17452;DHT22;8843;48.838;9.324;2022-08-03T04:59:06;24.10;61.60
17452;DHT22;8843;48.838;9.324;2022-08-03T05:01:33;24.10;61.50
17452;DHT22;8843;48.838;9.324;2022-08-03T05:04:02;24.10;61.60
17452;DHT22;8843;48.838;9.324;2022-08-03T05:06:29;24.10;61.60
17452;DHT22;8843;48.838;9.324;2022-08-03T05:08:56;24.10;61.60
17452;DHT22;8843;48.838;9.324;2022-08-03T05:11:23;24.10;61.60
17452;DHT22;8843;48.838;9.324;2022-08-03T05:13:49;24.10;61.70
17452;DHT22;8843;48.838;9.324;2022-08-03T05:16:16;24.10;61.70
17452;DHT22;8843;48.838;9.324;2022-08-03T05:18:43;24.10;61.70
17452;DHT22;8843;48.838;9.324;2022-08-03T05:21:12;24.10;61.70
17452;DHT22;8843;48.838;9.324;2022-08-03T05:23:41;24.10;61.70
17452;DHT22;8843;48.838;9.324;2022-08-03T05:26:08;24.00;61.60
17452;DHT22;8843;48.838;9.324;2022-08-03T05:28:36;24.00;61.60
17452;DHT22;8843;48.838;9.324;2022-08-03T05:31:03;24.10;61.80
17452;DHT22;8843;48.838;9.324;2022-08-03T05:33:30;24.00;61.70
17452;DHT22;8843;48.838;9.324;2022-08-03T05:35:57;24.00;61.80
17452;DHT22;8843;48.838;9.324;2022-08-03T05:38:26;24.00;61.80
17452;DHT22;8843;48.838;9.324;2022-08-03T05:40:53;24.00;61.80
17452;DHT22;8843;48.838;9.324;2022-08-03T05:43:20;24.10;61.90
17452;DHT22;8843;48.838;9.324;2022-08-03T05:45:47;23.80;62.10
17452;DHT22;8843;48.838;9.324;2022-08-03T05:48:14;23.70;62.90
17452;DHT22;8843;48.838;9.324;2022-08-03T05:50:41;23.50;60.40
17452;DHT22;8843;48.838;9.324;2022-08-03T05:53:08;23.10;60.90
17452;DHT22;8843;48.838;9.324;2022-08-03T05:55:36;23.00;61.40
17452;DHT22;8843;48.838;9.324;2022-08-03T05:58:03;22.90;61.60
17452;DHT22;8843;48.838;9.324;2022-08-03T06:00:30;22.90;61.70
17452;DHT22;8843;48.838;9.324;2022-08-03T06:02:57;22.90;61.90
17452;DHT22;8843;48.838;9.324;2022-08-03T06:05:24;22.90;62.20
17452;DHT22;8843;48.838;9.324;2022-08-03T06:07:53;22.90;62.50
17452;DHT22;8843;48.838;9.324;2022-08-03T06:10:20;22.90;62.50
17452;DHT22;8843;48.838;9.324;2022-08-03T06:12:48;22.90;62.80
17452;DHT22;8843;48.838;9.324;2022-08-03T06:15:15;22.90;62.90
17452;DHT22;8843;48.838;9.324;2022-08-03T06:17:47;22.90;63.10
17452;DHT22;8843;48.838;9.324;2022-08-03T06:20:16;23.00;64.90
17452;DHT22;8843;48.838;9.324;2022-08-03T06:22:43;22.90;63.30
17452;DHT22;8843;48.838;9.324;2022-08-03T06:25:10;23.10;63.10
17452;DHT22;8843;48.838;9.324;2022-08-03T06:27:38;23.10;63.10
17452;DHT22;8843;48.838;9.324;2022-08-03T06:30:08;23.10;63.50
17452;DHT22;8843;48.838;9.324;2022-08-03T06:32:36;23.10;63.20
17452;DHT22;8843;48.838;9.324;2022-08-03T06:35:04;23.20;63.40
17452;DHT22;8843;48.838;9.324;2022-08-03T06:37:31;23.40;63.40
17452;DHT22;8843;48.838;9.324;2022-08-03T06:39:58;23.30;63.30
17452;DHT22;8843;48.838;9.324;2022-08-03T06:42:24;23.50;63.70
17452;DHT22;8843;48.838;9.324;2022-08-03T06:45:20;23.50;63.70
17452;DHT22;8843;48.838;9.324;2022-08-03T06:48:09;23.60;62.90
17452;DHT22;8843;48.838;9.324;2022-08-03T06:50:49;23.60;62.80
17452;DHT22;8843;48.838;9.324;2022-08-03T06:53:27;23.60;63.00
17452;DHT22;8843;48.838;9.324;2022-08-03T06:56:18;23.70;63.20
17452;DHT22;8843;48.838;9.324;2022-08-03T06:58:54;23.60;63.00
17452;DHT22;8843;48.838;9.324;2022-08-03T07:01:43;23.70;63.10
17452;DHT22;8843;48.838;9.324;2022-08-03T07:04:41;23.70;62.90
17452;DHT22;8843;48.838;9.324;2022-08-03T07:07:26;23.70;64.20
17452;DHT22;8843;48.838;9.324;2022-08-03T07:10:12;23.70;63.60
17452;DHT22;8843;48.838;9.324;2022-08-03T07:12:58;23.60;63.60
17452;DHT22;8843;48.838;9.324;2022-08-03T07:15:46;23.60;64.20
17452;DHT22;8843;48.838;9.324;2022-08-03T07:18:23;23.60;64.10
17452;DHT22;8843;48.838;9.324;2022-08-03T07:21:04;23.70;64.40
17452;DHT22;8843;48.838;9.324;2022-08-03T07:23:48;23.70;64.60
17452;DHT22;8843;48.838;9.324;2022-08-03T07:26:34;23.70;65.50
17452;DHT22;8843;48.838;9.324;2022-08-03T07:29:22;23.70;64.40
17452;DHT22;8843;48.838;9.324;2022-08-03T07:32:17;23.80;65.60
17452;DHT22;8843;48.838;9.324;2022-08-03T07:35:04;23.80;65.70
17452;DHT22;8843;48.838;9.324;2022-08-03T07:37:43;23.80;65.50
17452;DHT22;8843;48.838;9.324;2022-08-03T07:40:19;23.80;64.70
17452;DHT22;8843;48.838;9.324;2022-08-03T07:42:50;23.90;65.40
17452;DHT22;8843;48.838;9.324;2022-08-03T07:45:30;24.00;67.40
17452;DHT22;8843;48.838;9.324;2022-08-03T07:48:07;24.10;64.80
17452;DHT22;8843;48.838;9.324;2022-08-03T07:50:55;24.10;65.60
17452;DHT22;8843;48.838;9.324;2022-08-03T07:53:21;24.00;64.70
17452;DHT22;8843;48.838;9.324;2022-08-03T07:55:48;24.00;66.10
17452;DHT22;8843;48.838;9.324;2022-08-03T07:58:15;24.10;65.00
17452;DHT22;8843;48.838;9.324;2022-08-03T08:00:43;24.00;64.20
17452;DHT22;8843;48.838;9.324;2022-08-03T08:03:10;23.90;64.40
17452;DHT22;8843;48.838;9.324;2022-08-03T08:05:37;24.00;64.50
17452;DHT22;8843;48.838;9.324;2022-08-03T08:08:06;23.90;64.70
17452;DHT22;8843;48.838;9.324;2022-08-03T08:10:33;24.00;64.10
17452;DHT22;8843;48.838;9.324;2022-08-03T08:13:00;24.00;65.00
17452;DHT22;8843;48.838;9.324;2022-08-03T08:15:27;24.00;63.80
17452;DHT22;8843;48.838;9.324;2022-08-03T08:17:57;24.00;63.80
17452;DHT22;8843;48.838;9.324;2022-08-03T08:20:27;24.00;64.30
17452;DHT22;8843;48.838;9.324;2022-08-03T08:22:55;24.00;63.90
17452;DHT22;8843;48.838;9.324;2022-08-03T08:25:24;23.90;64.20
17452;DHT22;8843;48.838;9.324;2022-08-03T08:27:51;24.00;64.80
17452;DHT22;8843;48.838;9.324;2022-08-03T08:30:20;23.90;63.70
17452;DHT22;8843;48.838;9.324;2022-08-03T08:32:49;23.90;64.10
17452;DHT22;8843;48.838;9.324;2022-08-03T08:35:17;23.90;64.10
17452;DHT22;8843;48.838;9.324;2022-08-03T08:37:44;23.80;64.00
17452;DHT22;8843;48.838;9.324;2022-08-03T08:40:12;23.90;63.90
17452;DHT22;8843;48.838;9.324;2022-08-03T08:42:41;23.90;64.00
17452;DHT22;8843;48.838;9.324;2022-08-03T08:45:09;23.90;64.70
17452;DHT22;8843;48.838;9.324;2022-08-03T08:47:38;23.90;63.90
17452;DHT22;8843;48.838;9.324;2022-08-03T08:50:06;23.90;64.20
17452;DHT22;8843;48.838;9.324;2022-08-03T08:52:34;23.80;63.90
17452;DHT22;8843;48.838;9.324;2022-08-03T08:55:03;23.80;64.00
17452;DHT22;8843;48.838;9.324;2022-08-03T08:57:33;23.80;64.00
17452;DHT22;8843;48.838;9.324;2022-08-03T09:00:05;23.80;64.10
17452;DHT22;8843;48.838;9.324;2022-08-03T09:02:33;23.80;64.10
17452;DHT22;8843;48.838;9.324;2022-08-03T09:05:01;23.90;64.00
17452;DHT22;8843;48.838;9.324;2022-08-03T09:07:28;23.90;64.00
17452;DHT22;8843;48.838;9.324;2022-08-03T09:09:55;24.00;64.20
17452;DHT22;8843;48.838;9.324;2022-08-03T09:12:22;23.90;64.30
17452;DHT22;8843;48.838;9.324;2022-08-03T09:14:50;23.90;64.00
17452;DHT22;8843;48.838;9.324;2022-08-03T09:17:18;23.90;64.10
17452;DHT22;8843;48.838;9.324;2022-08-03T09:20:03;23.90;64.20
17452;DHT22;8843;48.838;9.324;2022-08-03T09:22:31;24.00;64.00
17452;DHT22;8843;48.838;9.324;2022-08-03T09:25:00;23.90;64.10
17452;DHT22;8843;48.838;9.324;2022-08-03T09:27:28;23.90;64.00
17452;DHT22;8843;48.838;9.324;2022-08-03T09:30:12;23.90;64.10
17452;DHT22;8843;48.838;9.324;2022-08-03T09:32:40;24.00;64.10
17452;DHT22;8843;48.838;9.324;2022-08-03T09:35:09;23.90;64.10
17452;DHT22;8843;48.838;9.324;2022-08-03T09:37:36;23.90;64.10
17452;DHT22;8843;48.838;9.324;2022-08-03T09:40:04;24.00;64.80
17452;DHT22;8843;48.838;9.324;2022-08-03T09:42:31;24.00;63.90
17452;DHT22;8843;48.838;9.324;2022-08-03T09:45:03;24.30;63.70
17452;DHT22;8843;48.838;9.324;2022-08-03T09:47:32;24.20;63.50
17452;DHT22;8843;48.838;9.324;2022-08-03T09:50:01;24.10;63.70
17452;DHT22;8843;48.838;9.324;2022-08-03T09:52:33;24.10;63.90
17452;DHT22;8843;48.838;9.324;2022-08-03T09:55:02;24.10;63.90
17452;DHT22;8843;48.838;9.324;2022-08-03T09:57:33;24.10;64.00
17452;DHT22;8843;48.838;9.324;2022-08-03T10:00:07;24.20;63.60
17452;DHT22;8843;48.838;9.324;2022-08-03T10:02:37;24.10;63.80
17452;DHT22;8843;48.838;9.324;2022-08-03T10:05:08;24.10;64.20
17452;DHT22;8843;48.838;9.324;2022-08-03T10:07:42;24.40;62.90
17452;DHT22;8843;48.838;9.324;2022-08-03T10:10:10;24.40;63.00
17452;DHT22;8843;48.838;9.324;2022-08-03T10:12:37;24.30;63.50
17452;DHT22;8843;48.838;9.324;2022-08-03T10:15:07;24.20;63.60
17452;DHT22;8843;48.838;9.324;2022-08-03T10:17:34;24.60;63.00
17452;DHT22;8843;48.838;9.324;2022-08-03T10:20:03;24.30;63.20
17452;DHT22;8843;48.838;9.324;2022-08-03T10:22:33;24.30;63.50
17452;DHT22;8843;48.838;9.324;2022-08-03T10:25:05;24.50;63.40
17452;DHT22;8843;48.838;9.324;2022-08-03T10:27:34;24.40;63.00
17452;DHT22;8843;48.838;9.324;2022-08-03T10:30:05;24.30;63.30
17452;DHT22;8843;48.838;9.324;2022-08-03T10:32:35;24.30;63.50
17452;DHT22;8843;48.838;9.324;2022-08-03T10:35:05;24.20;63.50
17452;DHT22;8843;48.838;9.324;2022-08-03T10:37:40;25.40;59.10
17452;DHT22;8843;48.838;9.324;2022-08-03T10:40:11;27.00;57.80
17452;DHT22;8843;48.838;9.324;2022-08-03T10:42:40;28.20;56.80
17452;DHT22;8843;48.838;9.324;2022-08-03T10:45:13;28.30;55.40
17452;DHT22;8843;48.838;9.324;2022-08-03T10:47:41;28.80;55.10
17452;DHT22;8843;48.838;9.324;2022-08-03T10:50:08;29.40;54.00
17452;DHT22;8843;48.838;9.324;2022-08-03T10:52:53;29.50;52.80
17452;DHT22;8843;48.838;9.324;2022-08-03T10:55:30;29.50;52.00
17452;DHT22;8843;48.838;9.324;2022-08-03T10:58:20;29.70;53.10
17452;DHT22;8843;48.838;9.324;2022-08-03T11:01:11;29.90;52.30
17452;DHT22;8843;48.838;9.324;2022-08-03T11:04:14;30.20;51.30
17452;DHT22;8843;48.838;9.324;2022-08-03T11:06:41;30.50;50.90
17452;DHT22;8843;48.838;9.324;2022-08-03T11:09:18;30.60;50.70
17452;DHT22;8843;48.838;9.324;2022-08-03T11:11:46;30.80;50.10
17452;DHT22;8843;48.838;9.324;2022-08-03T11:14:16;30.90;50.00
17452;DHT22;8843;48.838;9.324;2022-08-03T11:16:45;31.30;48.50
17452;DHT22;8843;48.838;9.324;2022-08-03T11:19:16;31.10;49.00
17452;DHT22;8843;48.838;9.324;2022-08-03T11:21:57;30.70;49.20
17452;DHT22;8843;48.838;9.324;2022-08-03T11:24:57;30.90;49.60
17452;DHT22;8843;48.838;9.324;2022-08-03T11:27:28;31.30;48.80
17452;DHT22;8843;48.838;9.324;2022-08-03T11:29:58;31.50;48.50
17452;DHT22;8843;48.838;9.324;2022-08-03T11:32:55;31.60;47.90
17452;DHT22;8843;48.838;9.324;2022-08-03T11:35:24;31.60;47.70
17452;DHT22;8843;48.838;9.324;2022-08-03T11:38:08;31.70;47.50
17452;DHT22;8843;48.838;9.324;2022-08-03T11:40:39;31.90;47.00
17452;DHT22;8843;48.838;9.324;2022-08-03T11:43:07;32.00;46.80
17452;DHT22;8843;48.838;9.324;2022-08-03T11:45:35;32.10;46.30
17452;DHT22;8843;48.838;9.324;2022-08-03T11:48:12;31.80;47.00
17452;DHT22;8843;48.838;9.324;2022-08-03T11:50:40;31.90;46.90
17452;DHT22;8843;48.838;9.324;2022-08-03T11:53:13;31.90;46.80
17452;DHT22;8843;48.838;9.324;2022-08-03T11:55:42;32.30;46.60
17452;DHT22;8843;48.838;9.324;2022-08-03T11:58:17;32.20;46.20
17452;DHT22;8843;48.838;9.324;2022-08-03T12:00:44;32.30;46.20
17452;DHT22;8843;48.838;9.324;2022-08-03T12:03:13;32.60;46.20
17452;DHT22;8843;48.838;9.324;2022-08-03T12:05:45;32.60;46.50
17452;DHT22;8843;48.838;9.324;2022-08-03T12:08:14;32.50;46.00
17452;DHT22;8843;48.838;9.324;2022-08-03T12:10:48;32.50;45.70
17452;DHT22;8843;48.838;9.324;2022-08-03T12:13:16;32.30;46.40
17452;DHT22;8843;48.838;9.324;2022-08-03T12:15:49;32.50;45.60
17452;DHT22;8843;48.838;9.324;2022-08-03T12:18:17;32.40;45.60
17452;DHT22;8843;48.838;9.324;2022-08-03T12:20:45;32.50;44.80
17452;DHT22;8843;48.838;9.324;2022-08-03T12:23:13;32.50;44.90
17452;DHT22;8843;48.838;9.324;2022-08-03T12:25:41;32.60;45.00
17452;DHT22;8843;48.838;9.324;2022-08-03T12:28:13;32.40;45.20
17452;DHT22;8843;48.838;9.324;2022-08-03T12:30:44;32.30;44.70
17452;DHT22;8843;48.838;9.324;2022-08-03T12:33:21;32.30;45.60
17452;DHT22;8843;48.838;9.324;2022-08-03T12:36:00;32.40;44.80
17452;DHT22;8843;48.838;9.324;2022-08-03T12:38:29;32.40;44.40
17452;DHT22;8843;48.838;9.324;2022-08-03T12:40:58;32.50;43.70
17452;DHT22;8843;48.838;9.324;2022-08-03T12:43:27;32.30;43.70
17452;DHT22;8843;48.838;9.324;2022-08-03T12:46:10;32.40;42.10
17452;DHT22;8843;48.838;9.324;2022-08-03T12:49:05;32.60;43.50
17452;DHT22;8843;48.838;9.324;2022-08-03T12:51:33;32.80;43.80
17452;DHT22;8843;48.838;9.324;2022-08-03T12:54:01;32.50;44.10
17452;DHT22;8843;48.838;9.324;2022-08-03T12:56:29;32.60;44.30
17452;DHT22;8843;48.838;9.324;2022-08-03T12:58:57;32.80;43.80
17452;DHT22;8843;48.838;9.324;2022-08-03T13:01:24;32.80;43.90
17452;DHT22;8843;48.838;9.324;2022-08-03T13:03:53;32.80;44.00
17452;DHT22;8843;48.838;9.324;2022-08-03T13:06:22;33.10;44.00
17452;DHT22;8843;48.838;9.324;2022-08-03T13:09:00;33.00;43.70
17452;DHT22;8843;48.838;9.324;2022-08-03T13:11:27;32.90;43.80
17452;DHT22;8843;48.838;9.324;2022-08-03T13:13:54;32.50;44.30
17452;DHT22;8843;48.838;9.324;2022-08-03T13:16:23;32.70;44.20
17452;DHT22;8843;48.838;9.324;2022-08-03T13:18:50;32.60;44.00
17452;DHT22;8843;48.838;9.324;2022-08-03T13:21:19;32.80;44.10
17452;DHT22;8843;48.838;9.324;2022-08-03T13:23:47;32.80;43.60
17452;DHT22;8843;48.838;9.324;2022-08-03T13:26:14;32.70;43.50
17452;DHT22;8843;48.838;9.324;2022-08-03T13:28:41;32.80;44.40
17452;DHT22;8843;48.838;9.324;2022-08-03T13:31:08;33.10;43.50
17452;DHT22;8843;48.838;9.324;2022-08-03T13:33:36;33.10;43.70
17452;DHT22;8843;48.838;9.324;2022-08-03T13:36:05;33.10;43.70
17452;DHT22;8843;48.838;9.324;2022-08-03T13:38:32;33.10;43.20
17452;DHT22;8843;48.838;9.324;2022-08-03T13:41:01;33.30;42.90
17452;DHT22;8843;48.838;9.324;2022-08-03T13:43:28;33.30;42.50
17452;DHT22;8843;48.838;9.324;2022-08-03T13:45:54;33.30;41.90
17452;DHT22;8843;48.838;9.324;2022-08-03T13:48:22;33.10;42.20
17452;DHT22;8843;48.838;9.324;2022-08-03T13:50:50;33.00;41.70
17452;DHT22;8843;48.838;9.324;2022-08-03T13:53:17;32.90;41.70
17452;DHT22;8843;48.838;9.324;2022-08-03T13:55:44;33.20;41.90
17452;DHT22;8843;48.838;9.324;2022-08-03T13:58:10;33.10;42.60
17452;DHT22;8843;48.838;9.324;2022-08-03T14:00:38;33.20;41.80
17452;DHT22;8843;48.838;9.324;2022-08-03T14:03:05;33.20;41.90
17452;DHT22;8843;48.838;9.324;2022-08-03T14:05:33;32.90;42.10
17452;DHT22;8843;48.838;9.324;2022-08-03T14:08:01;32.90;42.20
17452;DHT22;8843;48.838;9.324;2022-08-03T14:10:29;32.70;41.50
17452;DHT22;8843;48.838;9.324;2022-08-03T14:12:56;32.30;42.90
17452;DHT22;8843;48.838;9.324;2022-08-03T14:15:25;32.60;42.80
17452;DHT22;8843;48.838;9.324;2022-08-03T14:17:53;32.80;42.20
17452;DHT22;8843;48.838;9.324;2022-08-03T14:20:20;32.60;41.60
17452;DHT22;8843;48.838;9.324;2022-08-03T14:22:47;32.80;42.40
17452;DHT22;8843;48.838;9.324;2022-08-03T14:25:15;33.00;42.60
17452;DHT22;8843;48.838;9.324;2022-08-03T14:27:42;33.00;42.60
17452;DHT22;8843;48.838;9.324;2022-08-03T14:30:10;33.00;42.30
17452;DHT22;8843;48.838;9.324;2022-08-03T14:32:37;32.90;42.30
17452;DHT22;8843;48.838;9.324;2022-08-03T14:35:04;32.70;42.90
17452;DHT22;8843;48.838;9.324;2022-08-03T14:37:31;32.80;42.00
17452;DHT22;8843;48.838;9.324;2022-08-03T14:39:59;32.80;42.10
17452;DHT22;8843;48.838;9.324;2022-08-03T14:42:28;32.80;42.20
17452;DHT22;8843;48.838;9.324;2022-08-03T14:44:55;32.80;42.30
17452;DHT22;8843;48.838;9.324;2022-08-03T14:47:21;32.70;42.20
17452;DHT22;8843;48.838;9.324;2022-08-03T14:49:48;32.80;42.70
17452;DHT22;8843;48.838;9.324;2022-08-03T14:52:15;32.60;41.60
17452;DHT22;8843;48.838;9.324;2022-08-03T14:54:43;32.60;41.50
17452;DHT22;8843;48.838;9.324;2022-08-03T14:57:10;32.40;41.70
17452;DHT22;8843;48.838;9.324;2022-08-03T14:59:38;32.40;42.80
17452;DHT22;8843;48.838;9.324;2022-08-03T15:02:06;32.40;42.00
17452;DHT22;8843;48.838;9.324;2022-08-03T15:04:33;32.40;41.60
17452;DHT22;8843;48.838;9.324;2022-08-03T15:07:00;32.10;42.60
17452;DHT22;8843;48.838;9.324;2022-08-03T15:09:27;32.30;41.70
17452;DHT22;8843;48.838;9.324;2022-08-03T15:11:54;32.40;41.30
17452;DHT22;8843;48.838;9.324;2022-08-03T15:14:20;32.20;39.70
17452;DHT22;8843;48.838;9.324;2022-08-03T15:16:49;31.60;43.20
17452;DHT22;8843;48.838;9.324;2022-08-03T15:19:16;31.90;41.90
17452;DHT22;8843;48.838;9.324;2022-08-03T15:21:43;32.20;41.90
17452;DHT22;8843;48.838;9.324;2022-08-03T15:24:10;32.20;42.20
17452;DHT22;8843;48.838;9.324;2022-08-03T15:26:37;32.30;42.10
17452;DHT22;8843;48.838;9.324;2022-08-03T15:29:04;32.20;42.10
17452;DHT22;8843;48.838;9.324;2022-08-03T15:31:32;32.20;42.00
17452;DHT22;8843;48.838;9.324;2022-08-03T15:34:01;32.20;41.70
17452;DHT22;8843;48.838;9.324;2022-08-03T15:36:28;32.10;41.20
17452;DHT22;8843;48.838;9.324;2022-08-03T15:38:55;32.10;41.60
17452;DHT22;8843;48.838;9.324;2022-08-03T15:41:21;31.80;42.00
17452;DHT22;8843;48.838;9.324;2022-08-03T15:43:48;31.90;41.50
17452;DHT22;8843;48.838;9.324;2022-08-03T15:46:17;31.90;41.30
17452;DHT22;8843;48.838;9.324;2022-08-03T15:48:44;32.00;41.50
17452;DHT22;8843;48.838;9.324;2022-08-03T15:51:12;31.80;42.00
17452;DHT22;8843;48.838;9.324;2022-08-03T15:53:39;31.50;41.80
17452;DHT22;8843;48.838;9.324;2022-08-03T15:56:07;31.20;42.20
17452;DHT22;8843;48.838;9.324;2022-08-03T15:58:35;31.40;41.30
17452;DHT22;8843;48.838;9.324;2022-08-03T16:01:02;31.30;41.70
17452;DHT22;8843;48.838;9.324;2022-08-03T16:03:29;31.40;41.30
17452;DHT22;8843;48.838;9.324;2022-08-03T16:05:59;31.50;41.10
17452;DHT22;8843;48.838;9.324;2022-08-03T16:08:28;31.40;41.00